Flight Track Log - Related Links

Times and Time Zones

All times are in EDT time to prevent confusion due to time zone crossing. See the OPT732 flight status page for this flight to view local times or setup timezone preferences in your user account.

Time Position Orientation Groundspeed Altitude Reporting Facility
EDT Latitude Longitude Course Direction KTS MPH feet Rate Location/Type
Wed 09:03:04 AM 29.6375 -95.2889 143° Southeast 166 191 900  Level Houston Center
Wed 09:04:18 AM 29.5783 -95.2383 143° Southeast 256 295 5,400 4,047 Climbing Houston Center
Wed 09:05:13 AM 29.5286 -95.1794 134° Southeast 287 330 9,600 4,050 Climbing Houston Center
Wed 09:06:18 AM 29.4586 -95.1025 136° Southeast 316 364 13,500 2,882 Climbing Houston Center
Wed 09:07:20 AM 29.3914 -95.0261 135° Southeast 339 390 15,700 2,177 Climbing Houston Center
Wed 09:08:22 AM 29.3303 -94.9328 127° Southeast 366 421 18,000 2,439 Climbing Houston Center
Wed 09:09:23 AM 29.2717 -94.8322 124° Southeast 380 437 20,700 2,439 Climbing Houston Center
Wed 09:10:25 AM 29.2111 -94.7283 124° Southeast 391 450 23,000 2,293 Climbing Houston Center
Wed 09:11:26 AM 29.1489 -94.6181 123° Southeast 409 471 25,400 2,439 Climbing Houston Center
Wed 09:12:28 AM 29.0714 -94.4800 123° Southeast 430 495 28,000 2,419 Climbing Houston Center
Wed 09:13:30 AM 29.0064 -94.3583 121° Southeast 447 514 30,400 2,293 Climbing Houston Center
Wed 09:14:31 AM 28.9394 -94.2361 122° Southeast 454 522 32,700 2,098 Climbing Houston Center
Wed 09:15:33 AM 28.9214 -94.0978 98° East 460 529 34,700 1,113 Climbing Houston Center
Wed 09:16:35 AM 28.9525 -93.9472 77° East 484 557 35,000 146 Climbing Houston Center
Wed 09:17:36 AM 28.9867 -93.7908 76° East 500 575 35,000  Level Houston Center
Wed 09:18:38 AM 28.9997 -93.6325 85° East 513 590 35,000  Level Houston Center
Wed 09:19:40 AM 29.0006 -93.4361 90° East 516 594 35,000  Level Houston Center
Wed 09:20:41 AM 29.0008 -93.2711 90° East 519 597 35,000  Level Houston Center
Wed 09:21:43 AM 29.0011 -93.1061 90° East 522 601 35,000 -290 Level Houston Center
Wed 09:22:45 AM 29.0019 -92.9444 90° East 517 595 34,400 -1,065 Descending Houston Center
Wed 09:23:47 AM 29.0019 -92.7875 90° East 507 583 32,800 -1,512 Descending Houston Center
Wed 09:24:48 AM 29.0003 -92.6331 91° East 497 572 31,300 -1,610 Descending Houston Center
Wed 09:25:50 AM 28.9997 -92.4442 90° East 496 571 29,500 -1,597 Descending Houston Center
Wed 09:26:52 AM 28.9989 -92.2867 90° East 498 573 28,000 -1,452 Descending Houston Center
Wed 09:27:54 AM 28.9986 -92.1283 90° East 498 573 26,500 -1,452 Descending Houston Center
Wed 09:28:56 AM 28.9969 -91.9714 91° East 496 571 25,000 -1,463 Descending Houston Center
Wed 09:29:57 AM 28.9958 -91.8153 90° East 494 568 23,500 -1,463 Descending Houston Center
Wed 09:30:59 AM 28.9944 -91.6578 91° East 490 564 22,000 -1,452 Descending Houston Center
Wed 09:32:01 AM 28.9922 -91.5061 91° East 481 554 20,500 -1,645 Descending Houston Center
Wed 09:33:03 AM 28.9894 -91.3353 91° East 453 521 18,600 -1,645 Descending Houston Center
Wed 09:34:05 AM 29.0161 -91.2031 77° East 429 494 17,100 -1,488 Descending Houston Center
Wed 09:35:12 AM 29.0747 -91.0581 65° Northeast 428 493 15,400 -1,452 Descending Houston Center
Wed 09:36:09 AM 29.1181 -90.9608 63° Northeast 422 486 14,100 -1,412 Descending Houston Center
Wed 09:37:11 AM 29.1761 -90.8597 57° Northeast 390 449 12,600 -1,463 Descending Houston Center
Wed 09:38:12 AM 29.2361 -90.7908 45° Northeast 337 388 11,100 -1,512 Descending Houston Center
Wed 09:39:14 AM 29.3103 -90.7503 25° Northeast 311 358 9,500 -1,610 Descending Houston Center
Wed 09:40:15 AM 29.3442 -90.6583 67° East 271 312 7,800 -1,597 Descending Houston Center
Wed 09:41:18 AM 29.3556 -90.5861 80° East 265 305 6,200 -1,536 Descending Houston Center
Wed 09:42:20 AM 29.3917 -90.5719 19° North 231 266 4,600 -1,684 Descending Houston Center
Wed 09:43:12 AM 29.3956 -90.6303 274° West 206 237 3,000 -1,475 Descending Houston Center
Wed 09:44:18 AM 29.4508 -90.6592 336° Northwest 179 206 1,700 -1,041 Descending Houston Center
Wed 09:45:13 AM 29.4864 -90.6628 355° North 148 170 900 -517 Descending Houston Center
Wed 09:46:14 AM 29.5261 -90.6614 North 135 155 700 -197 Descending Houston Center

Login

Don't have an account? Register now (free) for customized features, flight alerts, and more!